地図

経路データ

SID SEASON NUMBER BASIN SUBBASIN NAME ISO_TIME NATURE LAT LON WMO_WIND WMO_PRES WMO_AGENCY TRACK_TYPE DIST2LAND LANDFALL IFLAG USA_AGENCY USA_ATCF_ID USA_LAT USA_LON USA_RECORD USA_STATUS USA_WIND USA_PRES USA_SSHS USA_R34_NE USA_R34_SE USA_R34_SW USA_R34_NW USA_R50_NE USA_R50_SE USA_R50_SW USA_R50_NW USA_R64_NE USA_R64_SE USA_R64_SW USA_R64_NW USA_POCI USA_ROCI USA_RMW USA_EYE TOKYO_LAT TOKYO_LON TOKYO_GRADE TOKYO_WIND TOKYO_PRES TOKYO_R50_DIR TOKYO_R50_LONG TOKYO_R50_SHORT TOKYO_R30_DIR TOKYO_R30_LONG TOKYO_R30_SHORT TOKYO_LAND CMA_LAT CMA_LON CMA_CAT CMA_WIND CMA_PRES HKO_LAT HKO_LON HKO_CAT HKO_WIND HKO_PRES NEWDELHI_LAT NEWDELHI_LON NEWDELHI_GRADE NEWDELHI_WIND NEWDELHI_PRES NEWDELHI_CI NEWDELHI_DP NEWDELHI_POCI REUNION_LAT REUNION_LON REUNION_TYPE REUNION_WIND REUNION_PRES REUNION_TNUM REUNION_CI REUNION_RMW REUNION_R34_NE REUNION_R34_SE REUNION_R34_SW REUNION_R34_NW REUNION_R50_NE REUNION_R50_SE REUNION_R50_SW REUNION_R50_NW REUNION_R64_NE REUNION_R64_SE REUNION_R64_SW REUNION_R64_NW BOM_LAT BOM_LON BOM_TYPE BOM_WIND BOM_PRES BOM_TNUM BOM_CI BOM_RMW BOM_R34_NE BOM_R34_SE BOM_R34_SW BOM_R34_NW BOM_R50_NE BOM_R50_SE BOM_R50_SW BOM_R50_NW BOM_R64_NE BOM_R64_SE BOM_R64_SW BOM_R64_NW BOM_ROCI BOM_POCI BOM_EYE BOM_POS_METHOD BOM_PRES_METHOD NADI_LAT NADI_LON NADI_CAT NADI_WIND NADI_PRES WELLINGTON_LAT WELLINGTON_LON WELLINGTON_WIND WELLINGTON_PRES DS824_LAT DS824_LON DS824_STAGE DS824_WIND DS824_PRES TD9636_LAT TD9636_LON TD9636_STAGE TD9636_WIND TD9636_PRES TD9635_LAT TD9635_LON TD9635_WIND TD9635_PRES TD9635_ROCI NEUMANN_LAT NEUMANN_LON NEUMANN_CLASS NEUMANN_WIND NEUMANN_PRES MLC_LAT MLC_LON MLC_CLASS MLC_WIND MLC_PRES USA_GUST BOM_GUST BOM_GUST_PER REUNION_GUST REUNION_GUST_PER USA_SEAHGT USA_SEARAD_NE USA_SEARAD_SE USA_SEARAD_SW USA_SEARAD_NW STORM_SPEED STORM_DIR
2009305N14134 2009 86 WP MM NOT_NAMED 2009-10-31 12:00:00 NR 14.1000 134.000 main 945 879 O_____________ jtwc_wp WP242009 14.1000 134.000 DB 15 1010 -3 16 295
2009305N14134 2009 86 WP MM NOT_NAMED 2009-10-31 15:00:00 NR 14.4329 133.263 main 879 811 P_____________ WP242009 14.4329 133.263 DB 17 1008 -3 16 296
2009305N14134 2009 86 WP MM NOT_NAMED 2009-10-31 18:00:00 NR 14.8000 132.500 main 811 754 O_____________ jtwc_wp WP242009 14.8000 132.500 DB 20 1007 -3 17 297
2009305N14134 2009 86 WP MM NOT_NAMED 2009-10-31 21:00:00 NR 15.2149 131.700 main 749 678 P_____________ WP242009 15.2149 131.700 DB 20 1007 -3 20 296
2009305N14134 2009 86 WP MM NOT_NAMED 2009-11-01 00:00:00 TS 15.6600 130.640 main 675 621 O_O___________ jtwc_wp WP242009 15.6000 130.900 DB 20 1007 -3 1008 150 25 15.9000 129.600 1 23 1005 20 291
2009305N14134 2009 86 WP MM NOT_NAMED 2009-11-01 03:00:00 TS 15.9576 129.728 main 616 557 P_P___________ WP242009 15.8648 130.127 DB 20 1007 -3 1009 165 30 16.1432 128.931 1 23 1005 17 290
2009305N14134 2009 86 WP MM NOT_NAMED 2009-11-01 06:00:00 TS 16.2286 128.971 main 557 518 O_O___________ jtwc_wp WP242009 16.1000 129.400 DB 20 1007 -3 1010 180 35 16.4000 128.400 1 23 1005 14 295
2009305N14134 2009 86 WP MM NOT_NAMED 2009-11-01 09:00:00 TS 16.5459 128.402 main 518 504 P_P___________ WP242009 16.4073 128.720 DB 20 1007 -3 1010 180 35 16.6845 128.085 1 23 1005 12 302
2009305N14134 2009 86 WP MM NOT_NAMED 2009-11-01 12:00:00 TS 16.8500 127.950 main 511 487 O_O___________ jtwc_wp WP242009 16.7000 128.100 DB 20 1007 -3 1010 180 35 17.0000 127.800 1 23 1005 11 304
2009305N14134 2009 86 WP MM NOT_NAMED 2009-11-01 15:00:00 TS 17.1624 127.433 main 488 469 P_P___________ WP242009 16.9372 127.535 DB 20 1007 -3 1010 180 35 17.3876 127.330 1 23 1005 11 299
2009305N14134 2009 86 WP MM NOT_NAMED 2009-11-01 18:00:00 TS 17.4000 126.900 main 469 418 O_O___________ jtwc_wp WP242009 17.1000 127.000 DB 20 1007 -3 1010 180 35 17.7000 126.800 1 23 1005 11 289
2009305N14134 2009 86 WP MM NOT_NAMED 2009-11-01 21:00:00 TS 17.5024 126.371 main 418 365 P_P___________ WP242009 17.1949 126.442 DB 20 1007 -3 1010 180 35 17.8099 126.300 1 26 1005 10 273
2009305N14134 2009 86 WP MM NOT_NAMED 2009-11-02 00:00:00 TS 17.4556 125.844 main 354 311 O_OO__________ jtwc_wp WP242009 17.2000 125.900 DB 20 1007 -3 1010 180 35 17.8000 125.800 1 29 1005 17.1000 125.800 TD 25 1004 10 265
2009305N14134 2009 86 WP MM NOT_NAMED 2009-11-02 03:00:00 TS 17.4200 125.344 main 300 257 P_PP__________ WP242009 17.1600 125.370 DB 22 1005 -3 1010 167 47 17.8026 125.263 1 29 1005 17.1751 125.453 TD 25 1004 9 261
2009305N14134 2009 86 WP MM NOT_NAMED 2009-11-02 06:00:00 TS 17.3091 124.918 main 257 223 O_OO__________ jtwc_wp WP242009 17.0000 124.900 TD 25 1004 -1 1011 155 60 17.7000 124.800 1 29 1005 17.2000 125.100 TD 25 1004 8 246
2009305N14134 2009 86 WP MM NOT_NAMED 2009-11-02 09:00:00 TS 17.0949 124.584 main 223 191 P_PP__________ WP242009 16.7099 124.490 TD 25 1004 -1 1011 155 60 17.4373 124.520 1 29 1005 17.1375 124.742 TD 25 1003 8 229
2009305N14134 2009 86 WP MM NOT_NAMED 2009-11-02 12:00:00 TS 16.7818 124.291 main 191 169 O_OO__________ jtwc_wp WP242009 16.3000 124.200 TD 25 1004 -1 1011 155 60 17.1000 124.300 1 29 1005 17.0000 124.400 TD 25 1002 9 217
2009305N14134 2009 86 WP MM NOT_NAMED 2009-11-02 15:00:00 TS 16.4115 124.037 main 169 168 P_PP__________ WP242009 15.8299 124.048 TD 25 1004 -1 1011 152 50 16.7925 124.000 1 29 1005 16.8126 124.090 TD 25 1003 9 209
2009305N14134 2009 86 WP MM NOT_NAMED 2009-11-02 18:00:00 TS 16.0000 123.843 main 171 169 O_OO__________ jtwc_wp WP242009 15.3000 124.000 TD 25 1004 -1 1011 150 40 16.5000 123.700 1 29 1005 16.6000 123.800 TD 25 1004 10 199
2009305N14134 2009 86 WP MM NOT_NAMED 2009-11-02 21:00:00 TS 15.4963 123.715 main 169 125 P_P___________ WP242009 14.7525 123.992 TD 22 1005 -1 1009 142 40 16.2400 123.437 1 29 1005 TD 9 194
2009305N14134 2009 86 WP MM NOT_NAMED 2009-11-03 00:00:00 TS 15.1000 123.600 main 125 O_O___________ jtwc_wp WP242009 14.2000 124.000 DB 20 1007 -3 1007 135 40 16.0000 123.200 1 29 1005 8 195

デジタル台風データ・検索

IBTrACS Databaseについて

本データベースは、米国NOAAが公開する1842年以降の世界の熱帯低気圧のベストトラックデータアーカイブInternational Best Track Archive for Climate Stewardship (IBTrACS)を、ウェブで閲覧しやすい形式に変換したものです。

最終更新日:2021-12-03